Time;durP1;ratioP1;P1;durP2;ratioP2;P2;SDS_P1;SDS_P2;PMS_P1;PMS_P2;Temp;Humidity;BMP_temperature;BMP_pressure;BME280_temperature;BME280_humidity;BME280_pressure;Samples;Min_cycle;Max_cycle;Signal;HPM_P1;HPM_P2
2023/08/09 00:02:29;;;;;;;71.47;8.43;;;17.60;99.90;;;;;;5119397;23;20605;-73
2023/08/09 00:04:55;;;;;;;10.03;3.47;;;17.70;99.90;;;;;;4948449;28;20579;-72
2023/08/09 00:07:22;;;;;;;4.67;3.57;;;17.70;99.90;;;;;;4949956;28;20854;-70
2023/08/09 00:09:49;;;;;;;6.60;3.00;;;17.70;99.90;;;;;;4949843;28;20483;-71
2023/08/09 00:12:16;;;;;;;6.90;2.70;;;17.70;99.90;;;;;;4938597;28;21141;-70
2023/08/09 00:14:42;;;;;;;9.63;3.03;;;17.70;99.90;;;;;;4951113;28;20551;-70
2023/08/09 00:17:09;;;;;;;4.50;2.53;;;17.80;99.90;;;;;;4947589;28;20591;-72
2023/08/09 00:19:38;;;;;;;6.93;2.97;;;17.80;99.90;;;;;;4938920;28;20864;-72
2023/08/09 00:22:05;;;;;;;3.93;3.30;;;17.90;99.90;;;;;;4949981;28;20562;-71
2023/08/09 00:24:32;;;;;;;6.80;3.30;;;17.80;99.90;;;;;;4949032;28;20578;-72
2023/08/09 00:26:59;;;;;;;5.03;2.93;;;17.80;99.90;;;;;;4949858;28;21970;-72
2023/08/09 00:29:26;;;;;;;3.63;3.30;;;17.70;99.90;;;;;;4948595;28;20559;-73
2023/08/09 00:31:54;;;;;;;3.33;2.77;;;17.60;99.90;;;;;;4948966;28;20464;-73
2023/08/09 00:34:20;;;;;;;10.77;4.03;;;17.50;99.90;;;;;;4946836;28;20495;-72
2023/08/09 00:36:49;;;;;;;5.00;3.43;;;17.50;99.90;;;;;;4949393;28;20467;-73
2023/08/09 00:39:16;;;;;;;7.07;3.10;;;17.40;99.90;;;;;;4946691;28;21032;-72
2023/08/09 00:41:43;;;;;;;5.17;3.20;;;17.50;99.90;;;;;;4951151;28;20494;-73
2023/08/09 00:44:09;;;;;;;7.20;3.33;;;17.40;99.90;;;;;;4947219;28;20621;-72
2023/08/09 00:46:37;;;;;;;5.23;3.07;;;17.40;99.90;;;;;;4945661;28;20478;-73
2023/08/09 00:49:05;;;;;;;5.07;3.43;;;17.50;99.90;;;;;;4951224;28;20490;-72
2023/08/09 00:51:33;;;;;;;10.33;3.73;;;17.50;99.90;;;;;;4948925;28;20482;-72
2023/08/09 00:54:01;;;;;;;6.70;3.73;;;17.50;99.90;;;;;;4947357;28;20912;-72
2023/08/09 00:56:29;;;;;;;5.47;3.00;;;17.50;99.90;;;;;;4945426;28;20559;-72
2023/08/09 00:58:55;;;;;;;6.53;3.30;;;17.50;99.90;;;;;;4951384;28;20983;-72
2023/08/09 01:01:22;;;;;;;11.77;3.67;;;17.50;99.90;;;;;;4943674;28;20484;-71
2023/08/09 01:03:50;;;;;;;3.93;2.53;;;17.50;99.90;;;;;;4950460;28;20570;-71
2023/08/09 01:06:21;;;;;;;5.93;3.60;;;17.50;99.90;;;;;;4946038;28;20491;-70
2023/08/09 01:08:54;;;;;;;3.93;3.20;;;17.50;99.90;;;;;;4947645;28;20490;-70
2023/08/09 01:11:29;;;;;;;6.03;3.20;;;17.50;99.90;;;;;;4937753;28;20487;-70
2023/08/09 01:13:58;;;;;;;16.30;3.37;;;17.70;99.90;;;;;;4917822;28;20475;-71
2023/08/09 01:16:27;;;;;;;10.50;3.73;;;17.70;99.90;;;;;;4947859;28;20993;-73
2023/08/09 01:18:56;;;;;;;3.97;2.60;;;17.80;99.90;;;;;;4948696;28;21170;-73
2023/08/09 01:21:27;;;;;;;3.70;2.60;;;18.00;99.90;;;;;;4946073;28;20541;-73
2023/08/09 01:23:56;;;;;;;10.03;3.30;;;18.00;99.90;;;;;;4947490;28;20856;-73
2023/08/09 01:26:23;;;;;;;6.57;3.07;;;18.00;99.90;;;;;;4944365;28;21118;-71
2023/08/09 01:28:50;;;;;;;2.83;2.63;;;17.90;99.90;;;;;;4947156;28;20480;-71
2023/08/09 01:31:17;;;;;;;3.50;2.83;;;17.80;99.90;;;;;;4944041;28;20895;-70
2023/08/09 01:33:43;;;;;;;9.03;3.03;;;17.80;99.90;;;;;;4945938;28;20909;-71
2023/08/09 01:36:16;;;;;;;3.40;3.10;;;17.80;99.90;;;;;;4945169;28;20567;-70
2023/08/09 01:38:50;;;;;;;5.33;2.83;;;17.70;99.90;;;;;;4946065;28;20552;-70
2023/08/09 01:41:18;;;;;;;4.17;2.80;;;17.60;99.90;;;;;;4943559;28;20546;-70
2023/08/09 01:43:46;;;;;;;6.20;3.10;;;17.60;99.90;;;;;;4936624;28;20537;-70
2023/08/09 01:46:14;;;;;;;8.60;3.17;;;17.60;99.90;;;;;;4945404;28;20778;-70
2023/08/09 01:48:41;;;;;;;2.93;2.63;;;17.70;99.90;;;;;;4945361;28;20484;-70
2023/08/09 01:51:09;;;;;;;4.03;3.20;;;17.70;99.90;;;;;;4946961;28;20487;-69
2023/08/09 01:53:36;;;;;;;5.10;3.57;;;;;;;;;;4949833;28;20971;-70
2023/08/09 01:56:03;;;;;;;6.93;3.47;;;;;;;;;;4941548;28;20483;-69
2023/08/09 01:58:32;;;;;;;5.33;2.63;;;17.60;99.90;;;;;;4946511;28;20490;-70
2023/08/09 02:00:57;;;;;;;3.43;2.23;;;17.70;99.90;;;;;;4917435;28;20481;-70
2023/08/09 02:03:25;;;;;;;6.30;3.10;;;17.60;99.90;;;;;;4945779;28;20488;-69
2023/08/09 02:05:52;;;;;;;4.57;2.40;;;17.60;99.90;;;;;;4946327;28;21055;-70
2023/08/09 02:08:19;;;;;;;4.57;3.40;;;17.70;99.90;;;;;;4946568;28;21336;-70
2023/08/09 02:10:46;;;;;;;4.37;2.53;;;17.70;99.90;;;;;;4946097;28;20570;-71
2023/08/09 02:13:14;;;;;;;5.23;3.30;;;17.70;99.90;;;;;;4945837;28;21022;-70
2023/08/09 02:15:42;;;;;;;4.57;3.10;;;17.70;99.90;;;;;;4948300;28;20490;-69
2023/08/09 02:18:09;;;;;;;5.17;3.70;;;17.70;99.90;;;;;;4944128;28;20602;-69
2023/08/09 02:20:36;;;;;;;16.50;2.77;;;17.80;99.90;;;;;;4937350;28;21177;-70
2023/08/09 02:23:05;;;;;;;5.67;3.07;;;17.80;99.90;;;;;;4944712;28;20633;-70
2023/08/09 02:25:31;;;;;;;12.90;3.90;;;17.80;99.90;;;;;;4945153;28;21220;-70
2023/08/09 02:27:58;;;;;;;6.47;2.80;;;17.70;99.90;;;;;;4945951;28;20925;-70
2023/08/09 02:30:25;;;;;;;6.00;2.67;;;17.90;99.90;;;;;;4944565;28;20481;-71
2023/08/09 02:32:54;;;;;;;4.20;2.90;;;17.90;99.90;;;;;;4931088;28;20503;-70
2023/08/09 02:35:21;;;;;;;3.30;2.90;;;17.80;99.90;;;;;;4936251;28;20487;-70
2023/08/09 02:37:49;;;;;;;5.60;3.50;;;17.70;99.90;;;;;;4942408;28;20583;-69
2023/08/09 02:40:16;;;;;;;4.00;2.33;;;17.70;99.90;;;;;;4944222;28;20487;-69
2023/08/09 02:42:43;;;;;;;9.70;4.00;;;17.70;99.90;;;;;;4942842;28;20891;-70
2023/08/09 02:45:10;;;;;;;3.20;2.90;;;17.60;99.90;;;;;;4944366;28;20969;-72
2023/08/09 02:47:37;;;;;;;3.13;2.40;;;17.50;99.90;;;;;;4944143;28;20479;-71
2023/08/09 02:50:07;;;;;;;12.67;3.43;;;17.40;99.90;;;;;;4943555;28;20505;-73
2023/08/09 02:52:34;;;;;;;6.93;2.90;;;17.40;99.90;;;;;;4944531;28;20508;-72
2023/08/09 02:55:02;;;;;;;4.20;3.13;;;17.30;99.90;;;;;;4934513;28;20566;-72
2023/08/09 02:57:29;;;;;;;4.70;2.93;;;17.40;99.90;;;;;;4957955;28;21131;-71
2023/08/09 02:59:56;;;;;;;7.60;2.70;;;17.40;99.90;;;;;;4942451;28;20786;-71
2023/08/09 03:02:23;;;;;;;7.17;3.40;;;17.40;99.90;;;;;;4932497;28;20488;-71
2023/08/09 03:04:50;;;;;;;4.30;3.03;;;17.40;99.90;;;;;;4944606;28;20560;-71
2023/08/09 03:07:19;;;;;;;2.97;2.67;;;17.30;99.90;;;;;;4944383;28;20577;-71
2023/08/09 03:09:47;;;;;;;13.90;3.40;;;17.30;99.90;;;;;;4945533;28;20579;-72
2023/08/09 03:12:14;;;;;;;7.90;3.33;;;17.30;99.90;;;;;;4949978;28;20472;-72
2023/08/09 03:14:40;;;;;;;3.23;2.47;;;17.40;99.90;;;;;;4945704;28;20906;-72
2023/08/09 03:17:07;;;;;;;3.20;2.60;;;17.50;99.90;;;;;;4946038;28;20487;-72
2023/08/09 03:19:34;;;;;;;14.47;3.00;;;17.50;99.90;;;;;;4944478;28;20676;-72
2023/08/09 03:22:01;;;;;;;7.60;3.17;;;17.50;99.90;;;;;;4947283;28;20519;-72
2023/08/09 03:24:29;;;;;;;6.23;2.73;;;17.50;99.90;;;;;;4945097;28;20631;-72
2023/08/09 03:26:56;;;;;;;4.50;2.73;;;17.70;99.90;;;;;;4945689;28;20586;-72
2023/08/09 03:29:23;;;;;;;4.67;3.10;;;17.70;99.90;;;;;;4949749;28;20497;-72
2023/08/09 03:31:50;;;;;;;5.67;2.60;;;17.70;99.90;;;;;;4947954;28;20558;-72
2023/08/09 03:34:17;;;;;;;5.53;2.83;;;17.60;99.90;;;;;;4950095;28;20516;-72
2023/08/09 03:36:44;;;;;;;4.63;2.40;;;17.60;99.90;;;;;;4946414;28;20485;-72
2023/08/09 03:39:12;;;;;;;4.73;2.60;;;17.60;99.90;;;;;;4946411;28;20485;-71
2023/08/09 03:41:42;;;;;;;3.80;2.37;;;17.60;99.90;;;;;;4946583;28;20495;-72
2023/08/09 03:44:09;;;;;;;4.20;2.53;;;17.60;99.90;;;;;;4968477;28;20541;-71
2023/08/09 03:46:36;;;;;;;5.30;3.07;;;17.50;99.90;;;;;;4947281;28;20554;-71
2023/08/09 03:49:03;;;;;;;3.97;2.70;;;17.50;99.90;;;;;;4947022;28;20862;-72
2023/08/09 03:51:30;;;;;;;4.47;2.83;;;17.60;99.90;;;;;;4944179;28;20490;-71
2023/08/09 03:53:57;;;;;;;4.83;2.70;;;17.60;99.90;;;;;;4952658;28;20555;-72
2023/08/09 03:56:24;;;;;;;6.17;2.93;;;17.50;99.90;;;;;;4946093;28;20487;-74
2023/08/09 03:58:52;;;;;;;4.77;2.13;;;17.60;99.90;;;;;;4950156;28;20515;-74
2023/08/09 04:01:19;;;;;;;3.37;3.07;;;17.60;99.90;;;;;;4945436;28;20485;-74
2023/08/09 04:03:47;;;;;;;6.93;2.97;;;17.70;99.90;;;;;;4949771;28;20566;-74
2023/08/09 04:06:14;;;;;;;4.27;2.80;;;17.70;99.90;;;;;;4944299;28;20997;-74
2023/08/09 04:08:41;;;;;;;6.57;2.70;;;17.80;99.90;;;;;;4953158;28;20574;-73
2023/08/09 04:11:08;;;;;;;5.70;2.50;;;17.70;99.90;;;;;;4946302;28;20538;-74
2023/08/09 04:13:35;;;;;;;4.90;3.40;;;17.80;99.90;;;;;;4947292;28;20875;-75
2023/08/09 04:16:03;;;;;;;6.53;2.70;;;17.80;99.90;;;;;;4945622;28;20605;-74
2023/08/09 04:18:31;;;;;;;3.80;3.10;;;17.80;99.90;;;;;;4930287;28;23205;-74
2023/08/09 04:20:58;;;;;;;3.70;2.53;;;17.80;99.90;;;;;;4942788;28;21268;-74
2023/08/09 04:23:25;;;;;;;4.30;2.77;;;17.80;99.90;;;;;;4942126;28;20765;-76
2023/08/09 04:25:52;;;;;;;8.63;3.13;;;17.90;99.90;;;;;;4942531;28;20515;-75
2023/08/09 04:28:19;;;;;;;3.53;3.23;;;17.80;99.90;;;;;;4947413;28;21059;-74
2023/08/09 04:30:47;;;;;;;4.83;2.90;;;17.80;99.90;;;;;;4943313;28;20480;-74
2023/08/09 04:33:17;;;;;;;5.83;3.30;;;17.80;99.90;;;;;;4946694;28;20495;-74
2023/08/09 04:35:43;;;;;;;18.37;3.33;;;17.80;99.90;;;;;;4937788;28;20476;-74
2023/08/09 04:38:10;;;;;;;5.67;3.20;;;17.70;99.90;;;;;;4948881;28;20530;-75
2023/08/09 04:40:37;;;;;;;7.90;2.50;;;17.70;99.90;;;;;;4944792;28;20547;-75
2023/08/09 04:43:05;;;;;;;5.00;2.63;;;17.80;99.90;;;;;;4944327;28;20547;-74
2023/08/09 04:45:32;;;;;;;3.87;3.03;;;17.80;99.90;;;;;;4951180;28;20959;-74
2023/08/09 04:48:01;;;;;;;5.20;2.90;;;17.80;99.90;;;;;;4943572;28;20901;-73
2023/08/09 04:50:29;;;;;;;6.03;2.40;;;17.80;99.90;;;;;;4953023;28;20900;-74
2023/08/09 04:52:58;;;;;;;3.60;2.80;;;17.70;99.90;;;;;;4946061;28;20490;-74
2023/08/09 04:55:25;;;;;;;19.13;4.20;;;17.80;99.90;;;;;;4946272;28;20879;-74
2023/08/09 04:57:52;;;;;;;4.80;3.10;;;17.80;99.90;;;;;;4942832;28;20486;-74
2023/08/09 05:00:19;;;;;;;4.80;2.90;;;17.70;99.90;;;;;;4939959;28;21080;-76
2023/08/09 05:02:46;;;;;;;4.60;2.40;;;17.80;99.90;;;;;;4949020;28;20563;-76
2023/08/09 05:05:13;;;;;;;19.43;3.17;;;;;;;;;;4941482;28;20551;-75
2023/08/09 05:07:41;;;;;;;6.80;2.97;;;17.80;99.90;;;;;;4937503;28;20993;-75
2023/08/09 05:10:11;;;;;;;4.67;2.47;;;17.90;99.90;;;;;;4946828;28;20604;-76
2023/08/09 05:12:37;;;;;;;7.83;3.67;;;17.90;99.90;;;;;;4945153;28;20836;-75
2023/08/09 05:15:05;;;;;;;5.20;3.33;;;;;;;;;;4939639;28;20962;-74
2023/08/09 05:17:32;;;;;;;4.67;2.53;;;18.00;99.90;;;;;;4943698;28;20674;-74
2023/08/09 05:19:59;;;;;;;3.90;2.57;;;17.80;99.90;;;;;;4937222;28;20477;-73
2023/08/09 05:22:26;;;;;;;4.40;2.93;;;17.80;99.90;;;;;;4940908;28;20558;-73
2023/08/09 05:24:54;;;;;;;4.20;2.67;;;17.80;99.90;;;;;;4946539;28;20484;-74
2023/08/09 05:27:21;;;;;;;2.63;2.20;;;17.80;99.90;;;;;;4927254;28;20683;-74
2023/08/09 05:29:48;;;;;;;4.53;2.57;;;17.80;99.90;;;;;;4937956;28;20484;-75
2023/08/09 05:32:15;;;;;;;3.47;3.03;;;17.90;99.90;;;;;;4940918;28;20567;-73
2023/08/09 05:34:42;;;;;;;3.77;3.00;;;17.90;99.90;;;;;;4941183;28;20483;-73
2023/08/09 05:37:09;;;;;;;4.33;3.10;;;17.80;99.90;;;;;;4940449;28;20498;-73
2023/08/09 05:39:36;;;;;;;7.50;3.00;;;17.70;99.90;;;;;;4941745;28;21009;-74
2023/08/09 05:42:05;;;;;;;11.73;3.33;;;17.70;99.90;;;;;;4945761;28;21132;-74
2023/08/09 05:44:32;;;;;;;4.60;3.50;;;17.70;99.90;;;;;;4944357;28;20486;-74
2023/08/09 05:46:58;;;;;;;5.90;3.20;;;17.70;99.90;;;;;;4946478;28;21056;-74
2023/08/09 05:49:25;;;;;;;4.67;3.13;;;17.70;99.90;;;;;;4944258;28;20927;-76
2023/08/09 05:51:53;;;;;;;3.83;2.87;;;17.80;99.90;;;;;;4945844;28;20572;-72
2023/08/09 05:54:20;;;;;;;10.13;3.70;;;17.70;99.90;;;;;;4934847;28;21194;-74
2023/08/09 05:56:47;;;;;;;7.60;2.10;;;17.80;99.90;;;;;;4942452;28;20634;-73
2023/08/09 05:59:16;;;;;;;5.53;3.60;;;17.80;99.90;;;;;;4945994;28;20501;-71
2023/08/09 06:01:42;;;;;;;9.30;3.90;;;17.80;99.90;;;;;;4942099;28;20495;-74
2023/08/09 06:04:09;;;;;;;5.23;2.77;;;17.80;99.90;;;;;;4942673;28;20596;-75
2023/08/09 06:06:36;;;;;;;3.83;3.20;;;17.90;99.90;;;;;;4947138;28;20568;-77
2023/08/09 06:09:05;;;;;;;7.10;3.50;;;18.00;99.90;;;;;;4952106;28;20925;-75
2023/08/09 06:11:33;;;;;;;9.63;3.10;;;18.10;99.90;;;;;;4942609;28;20753;-78
2023/08/09 06:14:01;;;;;;;4.47;3.23;;;18.20;99.90;;;;;;4945952;28;20480;-75
2023/08/09 06:16:30;;;;;;;4.40;2.83;;;18.20;99.90;;;;;;4944021;28;20468;-74
2023/08/09 06:18:56;;;;;;;2.70;2.40;;;18.20;99.90;;;;;;4948576;28;20848;-74
2023/08/09 06:21:23;;;;;;;8.70;2.83;;;18.20;99.90;;;;;;4932473;28;20997;-73
2023/08/09 06:23:50;;;;;;;9.30;3.83;;;18.10;99.90;;;;;;4952980;28;20556;-73
2023/08/09 06:26:17;;;;;;;3.07;2.80;;;18.20;99.90;;;;;;4938388;28;20493;-71
2023/08/09 06:28:44;;;;;;;19.67;3.10;;;18.30;99.90;;;;;;4942225;28;21011;-71
2023/08/09 06:31:11;;;;;;;5.80;2.77;;;18.30;99.90;;;;;;4946446;28;20944;-70
2023/08/09 06:33:42;;;;;;;6.10;2.50;;;18.40;99.90;;;;;;4945307;28;20504;-70
2023/08/09 06:36:09;;;;;;;7.60;3.20;;;18.40;99.90;;;;;;4932843;28;20720;-71
2023/08/09 06:38:36;;;;;;;3.37;2.87;;;18.50;99.90;;;;;;4942099;28;20485;-71
2023/08/09 06:41:04;;;;;;;10.70;2.70;;;18.60;99.90;;;;;;4948640;28;20948;-70
2023/08/09 06:43:31;;;;;;;5.10;2.70;;;18.60;99.90;;;;;;4934852;28;20572;-70
2023/08/09 06:45:59;;;;;;;4.87;2.80;;;18.60;99.90;;;;;;4948167;28;20562;-70
2023/08/09 06:48:27;;;;;;;2.93;2.47;;;18.60;99.90;;;;;;4926757;28;20499;-70
2023/08/09 06:50:56;;;;;;;10.83;3.20;;;;;;;;;;4952369;28;20484;-72
2023/08/09 06:53:24;;;;;;;3.40;2.50;;;18.70;99.90;;;;;;4952080;28;20479;-70
2023/08/09 06:55:51;;;;;;;3.17;2.10;;;18.70;99.90;;;;;;4958891;28;20560;-70
2023/08/09 06:58:19;;;;;;;2.80;2.40;;;18.80;99.90;;;;;;4949263;28;20857;-69
2023/08/09 07:00:46;;;;;;;4.33;2.77;;;18.80;99.90;;;;;;4947657;28;20489;-70
2023/08/09 07:03:14;;;;;;;7.37;2.30;;;18.80;99.90;;;;;;4945379;28;20482;-71
2023/08/09 07:05:41;;;;;;;4.43;2.57;;;18.80;99.90;;;;;;4946839;28;20932;-69
2023/08/09 07:08:10;;;;;;;3.10;2.80;;;18.80;99.90;;;;;;4944756;28;20488;-72
2023/08/09 07:10:37;;;;;;;4.27;2.93;;;18.80;99.90;;;;;;4934828;28;20872;-70
2023/08/09 07:13:05;;;;;;;4.27;2.33;;;18.70;99.90;;;;;;4948896;28;21003;-71
2023/08/09 07:15:32;;;;;;;3.07;2.77;;;18.80;99.90;;;;;;4939559;28;20511;-71
2023/08/09 07:17:59;;;;;;;6.63;2.73;;;18.80;99.90;;;;;;4941968;28;21060;-70
2023/08/09 07:20:26;;;;;;;5.23;2.90;;;18.90;99.90;;;;;;4942374;28;20498;-70
2023/08/09 07:22:53;;;;;;;4.87;3.07;;;18.80;99.90;;;;;;4944155;28;20479;-72
2023/08/09 07:25:22;;;;;;;7.10;3.10;;;18.80;99.90;;;;;;4940543;28;20570;-69
2023/08/09 07:27:50;;;;;;;4.20;3.63;;;18.90;99.90;;;;;;4917260;28;20567;-69
2023/08/09 07:30:17;;;;;;;5.43;3.50;;;18.90;99.90;;;;;;4933076;28;20488;-70
2023/08/09 07:32:45;;;;;;;3.60;2.23;;;19.10;99.90;;;;;;4946255;28;20929;-69
2023/08/09 07:35:13;;;;;;;4.07;2.90;;;19.10;99.90;;;;;;4945379;28;21039;-68
2023/08/09 07:37:42;;;;;;;4.13;3.07;;;19.30;99.90;;;;;;4946328;28;20483;-69
2023/08/09 07:40:12;;;;;;;6.93;2.90;;;19.40;99.90;;;;;;4942536;28;20611;-68
2023/08/09 07:42:40;;;;;;;4.03;3.30;;;19.40;99.90;;;;;;4949880;28;20484;-71
2023/08/09 07:45:09;;;;;;;4.93;3.20;;;19.60;99.90;;;;;;4940154;28;21120;-70
2023/08/09 07:47:36;;;;;;;7.60;2.77;;;19.60;99.90;;;;;;4946704;28;20898;-71
2023/08/09 07:50:04;;;;;;;4.30;2.70;;;19.60;99.90;;;;;;4941917;28;20563;-70
2023/08/09 07:52:32;;;;;;;6.70;2.60;;;19.70;99.90;;;;;;4946455;28;20479;-70
2023/08/09 07:54:59;;;;;;;13.23;2.87;;;19.90;99.90;;;;;;4948321;28;20499;-69
2023/08/09 07:57:26;;;;;;;3.80;2.63;;;19.90;99.90;;;;;;4949042;28;20554;-69
2023/08/09 07:59:54;;;;;;;3.00;2.70;;;19.90;99.90;;;;;;4946274;28;20480;-70
2023/08/09 08:02:21;;;;;;;4.40;2.73;;;20.10;99.90;;;;;;4983496;28;21312;-69
2023/08/09 08:04:48;;;;;;;5.37;3.00;;;20.10;99.90;;;;;;4950974;28;20491;-70
2023/08/09 08:07:15;;;;;;;7.33;3.00;;;20.10;99.90;;;;;;4945284;28;20563;-70
2023/08/09 08:09:42;;;;;;;3.20;2.90;;;20.10;99.90;;;;;;4958359;28;20539;-70
2023/08/09 08:12:09;;;;;;;4.50;3.23;;;20.10;99.90;;;;;;4939905;28;20565;-71
2023/08/09 08:14:39;;;;;;;7.70;2.63;;;20.20;99.90;;;;;;4944116;28;20477;-69
2023/08/09 08:17:07;;;;;;;19.33;3.53;;;20.20;99.90;;;;;;4940984;28;20855;-71
2023/08/09 08:19:34;;;;;;;3.90;2.80;;;20.20;99.90;;;;;;4944676;28;20487;-70
2023/08/09 08:22:01;;;;;;;5.40;2.83;;;20.30;99.90;;;;;;4952384;28;20537;-70
2023/08/09 08:24:28;;;;;;;3.20;2.50;;;20.20;99.90;;;;;;4940581;28;20924;-71
2023/08/09 08:26:55;;;;;;;9.40;3.23;;;20.30;99.90;;;;;;4947164;28;20536;-68
2023/08/09 08:29:23;;;;;;;4.43;2.93;;;20.30;99.90;;;;;;4938302;28;20864;-68
2023/08/09 08:31:51;;;;;;;2.70;2.50;;;20.30;99.90;;;;;;4957284;28;20509;-69
2023/08/09 08:34:21;;;;;;;3.63;2.50;;;20.30;99.90;;;;;;4945513;28;20741;-70
2023/08/09 08:36:48;;;;;;;5.20;3.20;;;20.40;99.90;;;;;;4946218;28;20497;-70
2023/08/09 08:39:15;;;;;;;3.33;2.83;;;20.40;99.90;;;;;;4943752;28;20490;-68
2023/08/09 08:41:42;;;;;;;4.30;3.80;;;20.40;99.90;;;;;;4973612;28;20556;-69
2023/08/09 08:44:11;;;;;;;4.83;3.30;;;20.50;99.90;;;;;;4952574;28;20483;-70
2023/08/09 08:46:38;;;;;;;9.57;3.30;;;20.60;99.90;;;;;;4942129;28;21025;-73
2023/08/09 08:49:06;;;;;;;3.73;2.83;;;20.60;99.90;;;;;;4945248;28;20863;-73
2023/08/09 08:51:36;;;;;;;11.17;3.23;;;20.60;99.90;;;;;;4927662;28;20486;-74
2023/08/09 08:54:03;;;;;;;5.07;3.37;;;20.70;99.90;;;;;;4951087;28;20499;-72
2023/08/09 08:56:31;;;;;;;5.50;3.40;;;20.50;99.90;;;;;;4945228;28;20529;-72
2023/08/09 08:58:59;;;;;;;4.03;3.23;;;20.60;99.90;;;;;;4942678;28;20492;-74
2023/08/09 09:01:27;;;;;;;2.40;2.20;;;20.60;99.90;;;;;;4934735;28;20910;-72
2023/08/09 09:03:53;;;;;;;6.10;3.23;;;20.60;99.90;;;;;;4942779;28;20490;-73
2023/08/09 09:06:21;;;;;;;8.20;2.90;;;20.60;99.90;;;;;;4943571;28;20488;-69
2023/08/09 09:08:55;;;;;;;3.60;3.03;;;20.50;99.90;;;;;;4943827;28;20491;-68
2023/08/09 09:11:22;;;;;;;2.93;2.70;;;20.60;99.90;;;;;;4942668;28;20492;-69
2023/08/09 09:13:50;;;;;;;5.50;3.87;;;20.60;99.90;;;;;;4940689;28;20486;-66
2023/08/09 09:16:19;;;;;;;5.80;3.43;;;20.70;99.90;;;;;;4945992;28;20477;-68
2023/08/09 09:18:48;;;;;;;8.47;4.10;;;20.70;99.90;;;;;;4935759;28;20587;-69
2023/08/09 09:21:16;;;;;;;4.97;3.33;;;20.60;99.90;;;;;;4942251;28;20916;-69
2023/08/09 09:23:43;;;;;;;4.53;3.83;;;20.90;99.90;;;;;;4947206;28;20853;-69
2023/08/09 09:26:14;;;;;;;4.27;3.60;;;21.00;99.90;;;;;;4937354;28;20489;-67
2023/08/09 09:28:42;;;;;;;4.70;3.43;;;21.00;99.90;;;;;;4946392;28;20490;-69
2023/08/09 09:31:10;;;;;;;3.53;3.27;;;21.10;99.90;;;;;;4945088;28;20491;-69
2023/08/09 09:33:39;;;;;;;4.67;3.83;;;21.20;99.90;;;;;;4942363;28;20810;-69
2023/08/09 09:36:11;;;;;;;5.60;3.57;;;21.30;99.90;;;;;;4942603;28;20489;-68
2023/08/09 09:38:38;;;;;;;6.90;4.13;;;21.30;99.90;;;;;;4942137;28;20495;-68
2023/08/09 09:41:07;;;;;;;4.47;3.23;;;21.50;99.90;;;;;;4947603;28;20494;-68
2023/08/09 09:43:39;;;;;;;3.53;3.10;;;21.50;99.90;;;;;;4934936;28;20492;-68
2023/08/09 09:46:18;;;;;;;8.37;3.50;;;21.50;99.90;;;;;;4936737;28;20502;-67
2023/08/09 09:48:49;;;;;;;3.60;3.00;;;21.50;99.90;;;;;;4943589;28;20708;-70
2023/08/09 09:51:18;;;;;;;4.97;2.97;;;21.50;99.90;;;;;;4945606;28;21037;-68
2023/08/09 09:53:46;;;;;;;4.20;3.20;;;21.40;99.90;;;;;;4944069;28;20975;-69
2023/08/09 09:56:13;;;;;;;8.03;3.30;;;21.40;99.90;;;;;;4945304;28;20487;-70
2023/08/09 09:58:42;;;;;;;5.00;3.50;;;21.40;99.90;;;;;;4945636;28;20976;-71
2023/08/09 10:01:13;;;;;;;5.60;3.43;;;21.40;99.90;;;;;;4946613;28;21294;-70
2023/08/09 10:03:43;;;;;;;3.87;3.40;;;21.40;99.90;;;;;;4947317;28;20463;-69
2023/08/09 10:06:15;;;;;;;17.50;4.17;;;21.30;99.90;;;;;;4940426;28;20801;-72
2023/08/09 10:08:43;;;;;;;7.60;3.50;;;21.30;99.90;;;;;;4940312;28;20527;-71
2023/08/09 10:11:11;;;;;;;3.43;3.10;;;21.30;99.90;;;;;;4944111;28;20486;-72
2023/08/09 10:13:41;;;;;;;5.80;3.43;;;21.30;99.90;;;;;;4939146;28;20480;-74
2023/08/09 10:16:12;;;;;;;8.03;4.00;;;21.30;99.90;;;;;;4941064;28;20821;-69
2023/08/09 10:18:42;;;;;;;4.87;3.60;;;21.30;99.90;;;;;;4942383;28;20571;-70
2023/08/09 10:21:10;;;;;;;6.43;3.27;;;21.40;99.90;;;;;;4947530;28;20553;-67
2023/08/09 10:23:37;;;;;;;7.67;3.83;;;21.50;99.90;;;;;;4944733;28;20923;-68
2023/08/09 10:26:04;;;;;;;6.37;3.67;;;21.60;99.90;;;;;;4945769;28;20575;-69
2023/08/09 10:28:49;;;;;;;3.00;2.80;;;21.70;99.90;;;;;;4944870;28;20490;-69
2023/08/09 10:31:48;;;;;;;2.70;2.33;;;21.60;99.90;;;;;;4938300;28;20874;-67
2023/08/09 10:34:15;;;;;;;3.47;3.17;;;21.60;99.90;;;;;;4943966;28;20482;-68
2023/08/09 10:36:43;;;;;;;4.77;2.83;;;21.60;99.90;;;;;;4943763;28;20887;-68
2023/08/09 10:39:13;;;;;;;9.10;2.80;;;21.70;99.90;;;;;;4944274;28;20488;-67
2023/08/09 10:41:57;;;;;;;2.33;2.00;;;21.80;99.90;;;;;;4954164;28;20664;-68
2023/08/09 10:44:40;;;;;;;5.80;2.00;;;21.80;99.90;;;;;;4943965;28;20486;-69
2023/08/09 10:47:11;;;;;;;5.17;2.90;;;21.90;99.90;;;;;;4921140;28;20484;-67
2023/08/09 10:50:00;;;;;;;3.90;2.30;;;21.80;99.90;;;;;;4932314;28;20516;-71
2023/08/09 10:52:35;;;;;;;5.93;2.20;;;22.10;99.90;;;;;;4936692;28;20504;-69
2023/08/09 10:55:28;;;;;;;4.20;2.30;;;22.10;99.90;;;;;;4967144;28;20866;-69
2023/08/09 10:57:58;;;;;;;2.57;2.37;;;22.20;99.90;;;;;;4942786;28;20548;-68
2023/08/09 11:00:26;;;;;;;2.73;2.53;;;22.50;99.90;;;;;;4949596;28;20517;-69
2023/08/09 11:02:56;;;;;;;7.23;2.60;;;22.50;99.90;;;;;;4904785;28;1141561;-70
2023/08/09 11:05:24;;;;;;;8.47;2.17;;;;;;;;;;4948636;28;20326;-75
2023/08/09 11:07:53;;;;;;;2.67;2.47;;;22.70;99.90;;;;;;4948216;28;20457;-77
2023/08/09 11:10:32;;;;;;;2.40;2.20;;;22.50;99.90;;;;;;4941409;28;21010;-74
2023/08/09 11:13:02;;;;;;;2.30;2.10;;;22.60;99.90;;;;;;4932251;28;20484;-73
2023/08/09 11:15:29;;;;;;;9.50;2.80;;;22.30;99.90;;;;;;4945620;28;20574;-71
2023/08/09 11:17:57;;;;;;;3.20;2.90;;;22.30;99.90;;;;;;4943529;28;20456;-67
2023/08/09 11:20:24;;;;;;;3.83;3.20;;;22.30;99.90;;;;;;4946933;28;20500;-69
2023/08/09 11:22:55;;;;;;;3.00;2.63;;;22.60;99.90;;;;;;4930937;28;20479;-69
2023/08/09 11:25:24;;;;;;;8.73;2.50;;;22.60;99.90;;;;;;4945486;28;20566;-73
2023/08/09 11:27:52;;;;;;;2.53;2.30;;;22.70;99.90;;;;;;4947186;28;20545;-72
2023/08/09 11:30:20;;;;;;;2.70;2.20;;;22.80;99.90;;;;;;4943526;28;20972;-74
2023/08/09 11:32:55;;;;;;;2.87;2.20;;;22.90;99.90;;;;;;4946159;28;20535;-75
2023/08/09 11:35:29;;;;;;;6.10;2.53;;;22.90;99.90;;;;;;4943673;28;20455;-68
2023/08/09 11:37:56;;;;;;;3.03;2.40;;;22.90;99.90;;;;;;4943276;28;20974;-71
2023/08/09 11:40:23;;;;;;;4.10;3.00;;;22.70;99.90;;;;;;4943658;28;20476;-74
2023/08/09 11:42:56;;;;;;;3.27;2.60;;;22.70;99.90;;;;;;4940624;28;20459;-74
2023/08/09 11:45:23;;;;;;;5.70;2.50;;;22.80;99.90;;;;;;4944720;28;20475;-73
2023/08/09 11:47:51;;;;;;;2.60;2.40;;;22.80;99.90;;;;;;4950944;28;20477;-74
2023/08/09 11:50:22;;;;;;;5.73;3.00;;;22.80;99.90;;;;;;4932301;28;20560;-72
2023/08/09 11:52:56;;;;;;;3.07;2.57;;;22.90;99.90;;;;;;4954142;28;20474;-76
2023/08/09 11:55:27;;;;;;;3.33;2.60;;;22.70;99.90;;;;;;4944309;28;20492;-74
2023/08/09 11:57:54;;;;;;;2.63;2.43;;;22.80;99.90;;;;;;4954038;28;20452;-71
2023/08/09 12:00:27;;;;;;;6.20;3.17;;;22.80;99.90;;;;;;4949228;28;20485;-72
2023/08/09 12:02:55;;;;;;;2.97;2.67;;;22.80;99.90;;;;;;4944509;28;20559;-76
2023/08/09 12:05:23;;;;;;;7.20;3.00;;;22.80;99.90;;;;;;4947219;28;20451;-71
2023/08/09 12:07:53;;;;;;;4.97;3.37;;;22.70;99.90;;;;;;4945101;28;20489;-76
2023/08/09 12:10:22;;;;;;;3.40;3.10;;;22.70;99.90;;;;;;4945160;28;20905;-74
2023/08/09 12:12:51;;;;;;;4.00;2.93;;;22.60;99.90;;;;;;4963615;28;20722;-73
2023/08/09 12:15:18;;;;;;;4.00;3.27;;;22.70;99.90;;;;;;4946743;28;20453;-76
2023/08/09 12:17:47;;;;;;;8.50;3.07;;;22.80;99.90;;;;;;4941614;28;20547;-75
2023/08/09 12:20:14;;;;;;;4.30;2.73;;;23.00;99.90;;;;;;4935580;28;20457;-72
2023/08/09 12:22:41;;;;;;;3.27;2.53;;;23.00;99.90;;;;;;4938814;28;21002;-72
2023/08/09 12:25:09;;;;;;;4.83;3.20;;;23.00;99.90;;;;;;4938973;28;21026;-71
2023/08/09 12:27:39;;;;;;;2.53;2.33;;;;;;;;;;4943928;28;20462;-75
2023/08/09 12:30:10;;;;;;;5.77;3.13;;;23.10;99.90;;;;;;4943908;28;20492;-72
2023/08/09 12:32:37;;;;;;;4.60;2.73;;;23.20;99.90;;;;;;4938079;28;20469;-75
2023/08/09 12:35:05;;;;;;;2.20;2.00;;;23.10;99.90;;;;;;4936575;28;20482;-72
2023/08/09 12:37:32;;;;;;;14.50;2.93;;;23.00;99.90;;;;;;4943133;28;20525;-75
2023/08/09 12:39:59;;;;;;;3.00;2.80;;;23.00;99.90;;;;;;4935721;28;20475;-77
2023/08/09 12:42:26;;;;;;;5.30;2.40;;;23.20;99.90;;;;;;4935893;28;20855;-75
2023/08/09 12:44:54;;;;;;;2.70;2.13;;;23.00;99.90;;;;;;4939049;28;20821;-75
2023/08/09 12:47:21;;;;;;;9.83;2.73;;;23.10;99.90;;;;;;4946102;28;20516;-68
2023/08/09 12:49:48;;;;;;;3.73;2.50;;;23.20;99.90;;;;;;4942927;28;20568;-68
2023/08/09 12:52:14;;;;;;;4.50;3.20;;;23.30;99.90;;;;;;4940417;28;20551;-69
2023/08/09 12:54:42;;;;;;;8.90;2.87;;;23.50;99.90;;;;;;4946334;28;20485;-71